Terminal Aerodrome Forecast
Issued by NWS

Home | Current Version | Previous Version | Text Only | Print | Product List | Glossary On
Versions: 1 2 3 4 5 6 7 8 9 10 11 12 13 14 15 16 17
000
FTUS43 KGRR 212300 RRA
TAFJXN
TAF
KJXN 212341Z 2200/2224 33010G21KT P6SM BKN025
     FM220400 33011KT P6SM BKN025
     FM221300 33008KT P6SM SCT035
     FM221900 27010KT P6SM SCT040=

USA.gov is the U.S. government's official web portal to all federal, state and local government web resources and services.